createdAt,value
2018-04-11T00:00:20.278Z,99.90
2018-04-11T00:04:53.464Z,99.90
2018-04-11T00:09:26.664Z,99.90
2018-04-11T00:13:59.841Z,99.90
2018-04-11T00:18:33.798Z,99.90
2018-04-11T00:23:07.002Z,99.90
2018-04-11T00:27:40.207Z,99.90
2018-04-11T00:32:13.432Z,99.90
2018-04-11T00:36:46.606Z,99.90
2018-04-11T00:41:20.001Z,99.90
2018-04-11T00:45:53.966Z,99.90
2018-04-11T00:50:27.234Z,99.90
2018-04-11T00:55:01.215Z,99.90
2018-04-11T00:59:34.382Z,99.90
2018-04-11T01:04:07.569Z,99.90
2018-04-11T01:08:41.531Z,99.90
2018-04-11T01:13:14.724Z,99.90
2018-04-11T01:17:47.901Z,99.90
2018-04-11T01:22:21.880Z,99.90
2018-04-11T01:26:55.074Z,99.90
2018-04-11T01:31:28.268Z,99.90
2018-04-11T01:36:01.447Z,99.90
2018-04-11T01:40:35.398Z,99.90
2018-04-11T01:45:08.656Z,99.90
2018-04-11T01:49:41.854Z,99.90
2018-04-11T01:54:15.066Z,99.90
2018-04-11T01:58:48.386Z,99.90
2018-04-11T02:03:21.601Z,99.90
2018-04-11T02:07:54.780Z,99.90
2018-04-11T02:12:27.982Z,99.90
2018-04-11T02:17:01.187Z,99.90
2018-04-11T02:21:34.361Z,99.90
2018-04-11T02:26:07.641Z,99.90
2018-04-11T02:30:41.605Z,99.90
2018-04-11T02:35:14.803Z,99.90
2018-04-11T02:39:47.999Z,99.90
2018-04-11T02:44:21.206Z,99.90
2018-04-11T02:48:54.371Z,99.90
2018-04-11T02:53:27.569Z,99.90
2018-04-11T02:58:00.760Z,99.90
2018-04-11T03:02:33.978Z,99.90
2018-04-11T03:07:07.160Z,99.90
2018-04-11T03:11:40.341Z,99.90
2018-04-11T03:16:14.302Z,99.90
2018-04-11T03:20:47.498Z,99.90
2018-04-11T03:25:20.682Z,99.90
2018-04-11T03:29:53.902Z,99.90
2018-04-11T03:34:27.090Z,99.90
2018-04-11T03:39:01.042Z,99.90
2018-04-11T03:43:34.233Z,99.90
2018-04-11T03:48:07.470Z,99.90
2018-04-11T03:52:40.639Z,99.90
2018-04-11T03:57:13.844Z,99.90
2018-04-11T04:01:47.007Z,99.90
2018-04-11T04:06:20.202Z,99.90
2018-04-11T04:10:53.399Z,99.90
2018-04-11T04:15:38.617Z,99.90
2018-04-11T04:20:23.699Z,99.90
2018-04-11T04:24:56.893Z,99.90
2018-04-11T04:29:30.079Z,99.90
2018-04-11T04:34:03.261Z,99.90
2018-04-11T04:38:36.453Z,99.90
2018-04-11T04:43:10.406Z,99.90
2018-04-11T04:47:43.613Z,99.90
2018-04-11T04:52:16.826Z,99.90
2018-04-11T04:56:49.990Z,99.90
2018-04-11T05:01:23.943Z,99.90
2018-04-11T05:05:57.155Z,99.90
2018-04-11T05:10:30.327Z,99.90
2018-04-11T05:15:04.281Z,99.90
2018-04-11T05:19:37.469Z,99.90
2018-04-11T05:24:10.653Z,99.90
2018-04-11T05:28:44.607Z,99.90
2018-04-11T05:33:17.905Z,99.90
2018-04-11T05:37:51.097Z,99.90
2018-04-11T05:42:25.055Z,99.90
2018-04-11T05:46:58.267Z,99.90
2018-04-11T05:51:31.442Z,99.90
2018-04-11T05:56:05.428Z,99.90
2018-04-11T06:00:38.671Z,99.90
2018-04-11T06:05:11.887Z,99.90
2018-04-11T06:09:45.862Z,99.90
2018-04-11T06:14:19.025Z,99.90
2018-04-11T06:18:52.210Z,99.90
2018-04-11T06:23:26.161Z,99.90
2018-04-11T06:27:59.375Z,99.90
2018-04-11T06:32:32.584Z,99.90
2018-04-11T06:37:05.748Z,99.90
2018-04-11T06:41:39.701Z,99.90
2018-04-11T06:46:12.968Z,99.90
2018-04-11T06:50:46.113Z,99.90
2018-04-11T06:55:19.308Z,99.90
2018-04-11T06:59:52.527Z,99.90
2018-04-11T07:04:25.708Z,99.90
2018-04-11T07:08:59.669Z,99.90
2018-04-11T07:13:32.861Z,99.90
2018-04-11T07:18:06.053Z,99.90
2018-04-11T07:22:39.978Z,99.90
2018-04-11T07:27:13.938Z,99.90
2018-04-11T07:31:47.126Z,99.90
2018-04-11T07:36:20.359Z,99.90
2018-04-11T07:40:53.567Z,99.90
2018-04-11T07:45:26.758Z,99.90
2018-04-11T07:49:59.969Z,99.90
2018-04-11T07:54:33.201Z,99.90
2018-04-11T07:59:06.398Z,99.90
2018-04-11T08:03:39.643Z,99.90
2018-04-11T08:08:13.588Z,99.90
2018-04-11T08:12:46.810Z,99.90
2018-04-11T08:17:20.025Z,99.90
2018-04-11T08:21:53.270Z,99.90
2018-04-11T08:26:26.519Z,99.90
2018-04-11T08:30:59.743Z,99.90
2018-04-11T08:35:32.942Z,99.90
2018-04-11T08:40:06.217Z,97.90
2018-04-11T08:44:40.218Z,94.20
2018-04-11T08:49:13.397Z,94.10
2018-04-11T08:53:46.661Z,89.70
2018-04-11T08:58:20.630Z,85.50
2018-04-11T09:02:53.825Z,85.40
2018-04-11T09:07:27.038Z,82.70
2018-04-11T09:12:00.242Z,80.00
2018-04-11T09:16:33.481Z,76.80
2018-04-11T09:21:06.704Z,70.60
2018-04-11T09:25:40.710Z,70.50
2018-04-11T09:30:14.846Z,70.50
2018-04-11T09:34:48.017Z,66.90
2018-04-11T09:39:21.236Z,69.50
2018-04-11T09:43:54.489Z,64.00
2018-04-11T09:48:28.437Z,58.40
2018-04-11T09:53:01.721Z,58.30
2018-04-11T09:57:35.706Z,51.80
2018-04-11T10:02:08.934Z,51.70
2018-04-11T10:06:42.263Z,55.60
2018-04-11T10:11:16.249Z,52.30
2018-04-11T10:15:49.464Z,52.20
2018-04-11T10:20:22.674Z,51.50
2018-04-11T10:24:55.870Z,48.10
2018-04-11T10:29:29.063Z,47.80
2018-04-11T10:34:02.263Z,45.70
2018-04-11T10:38:35.445Z,37.40
2018-04-11T10:43:08.633Z,42.70
2018-04-11T10:47:41.972Z,34.40
2018-04-11T10:52:15.161Z,37.20
2018-04-11T10:56:49.154Z,32.80
2018-04-11T11:01:23.148Z,32.70
2018-04-11T11:05:56.350Z,32.80
2018-04-11T11:10:29.641Z,37.40
2018-04-11T11:15:02.861Z,39.00
2018-04-11T11:19:36.102Z,36.40
2018-04-11T11:24:09.345Z,35.10
2018-04-11T11:28:43.291Z,36.70
2018-04-11T11:33:16.490Z,36.50
2018-04-11T11:37:49.715Z,33.30
2018-04-11T11:42:22.921Z,32.50
2018-04-11T11:46:56.158Z,33.80
2018-04-11T11:51:29.368Z,35.60
2018-04-11T11:56:02.602Z,38.10
2018-04-11T12:00:36.600Z,34.50
2018-04-11T12:05:09.802Z,34.50
2018-04-11T12:09:43.024Z,32.30
2018-04-11T12:14:16.287Z,33.50
2018-04-11T12:18:49.465Z,32.20
2018-04-11T12:23:23.425Z,31.40
2018-04-11T12:27:56.651Z,31.30
2018-04-11T12:32:29.999Z,31.70
2018-04-11T12:37:03.242Z,33.10
2018-04-11T12:41:36.403Z,32.90
2018-04-11T12:46:09.643Z,30.10
2018-04-11T12:50:43.036Z,33.70
2018-04-11T12:55:16.995Z,33.30
2018-04-11T12:59:50.212Z,33.20
2018-04-11T13:04:23.409Z,35.80
2018-04-11T13:08:56.628Z,35.30
2018-04-11T13:13:29.820Z,38.00
2018-04-11T13:18:03.023Z,41.20
2018-04-11T13:22:36.299Z,39.40
2018-04-11T13:27:10.261Z,39.70
2018-04-11T13:31:43.500Z,39.60
2018-04-11T13:36:16.685Z,39.20
2018-04-11T13:40:49.943Z,42.50
2018-04-11T13:45:23.935Z,42.30
2018-04-11T13:49:57.183Z,42.00
2018-04-11T13:54:31.110Z,42.80
2018-04-11T13:59:05.225Z,44.00
2018-04-11T14:03:39.206Z,44.20
2018-04-11T14:08:12.448Z,44.30
2018-04-11T14:12:46.457Z,47.90
2018-04-11T14:17:19.654Z,47.50
2018-04-11T14:21:52.851Z,47.80
2018-04-11T14:26:26.087Z,43.60
2018-04-11T14:30:59.278Z,46.50
2018-04-11T14:35:32.497Z,45.40
2018-04-11T14:40:05.779Z,47.70
2018-04-11T14:44:38.968Z,44.80
2018-04-11T14:49:12.165Z,46.00
2018-04-11T14:53:45.404Z,44.00
2018-04-11T14:58:18.655Z,44.20
2018-04-11T15:02:52.857Z,44.70
2018-04-11T15:07:26.150Z,44.70
2018-04-11T15:11:59.314Z,44.80
2018-04-11T15:16:33.314Z,45.70
2018-04-11T15:21:07.327Z,45.60
2018-04-11T15:25:40.527Z,46.10
2018-04-11T15:30:13.729Z,47.20
2018-04-11T15:34:46.892Z,47.10
2018-04-11T15:39:20.090Z,46.20
2018-04-11T15:43:54.038Z,47.40
2018-04-11T15:48:27.237Z,47.30
2018-04-11T15:53:00.469Z,45.50
2018-04-11T15:57:33.690Z,46.00
2018-04-11T16:02:06.887Z,42.40
2018-04-11T16:06:40.091Z,45.30
2018-04-11T16:11:13.451Z,45.50
2018-04-11T16:15:46.716Z,45.20
2018-04-11T16:20:19.943Z,42.70
2018-04-11T16:24:53.942Z,44.10
2018-04-11T16:29:27.169Z,43.70
2018-04-11T16:34:01.150Z,44.80
2018-04-11T16:38:34.443Z,46.30
2018-04-11T16:43:07.607Z,46.00
2018-04-11T16:47:42.330Z,48.10
2018-04-11T16:52:15.535Z,48.10
2018-04-11T16:56:48.760Z,49.50
2018-04-11T17:01:21.966Z,51.30
2018-04-11T17:05:55.734Z,52.60
2018-04-11T17:10:28.935Z,52.80
2018-04-11T17:15:02.143Z,53.90
2018-04-11T17:19:35.334Z,55.70
2018-04-11T17:24:21.251Z,55.90
2018-04-11T17:29:07.464Z,56.80
2018-04-11T17:33:41.231Z,56.80
2018-04-11T17:38:14.436Z,55.30
2018-04-11T17:42:47.622Z,58.00
2018-04-11T17:47:20.860Z,58.80
2018-04-11T17:51:54.665Z,61.00
2018-04-11T17:56:27.918Z,61.00
2018-04-11T18:01:01.175Z,61.30
2018-04-11T18:05:34.421Z,61.80
2018-04-11T18:10:08.386Z,64.80
2018-04-11T18:14:41.607Z,64.00
2018-04-11T18:19:14.983Z,64.70
2018-04-11T18:23:48.205Z,65.20
2018-04-11T18:28:21.462Z,65.30
2018-04-11T18:32:54.705Z,65.30
2018-04-11T18:37:27.964Z,65.20
2018-04-11T18:42:01.316Z,66.30
2018-04-11T18:46:35.303Z,66.50
2018-04-11T18:51:08.503Z,66.40
2018-04-11T18:55:41.705Z,66.30
2018-04-11T19:00:14.921Z,67.70
2018-04-11T19:04:48.114Z,68.70
2018-04-11T19:09:21.503Z,69.20
2018-04-11T19:13:54.821Z,70.00
2018-04-11T19:18:28.029Z,70.90
2018-04-11T19:23:01.243Z,71.60
2018-04-11T19:27:34.507Z,72.70
2018-04-11T19:32:08.447Z,75.90
2018-04-11T19:36:41.687Z,75.90
2018-04-11T19:41:14.953Z,75.70
2018-04-11T19:45:48.951Z,76.10
2018-04-11T19:50:22.152Z,76.00
2018-04-11T19:54:55.362Z,76.30
2018-04-11T19:59:29.355Z,78.50
2018-04-11T20:04:02.519Z,77.80
2018-04-11T20:08:36.495Z,78.40
2018-04-11T20:13:09.887Z,78.20
2018-04-11T20:17:44.209Z,79.40
2018-04-11T20:22:18.280Z,79.80
2018-04-11T20:26:51.545Z,81.30
2018-04-11T20:31:24.898Z,83.80
2018-04-11T20:35:58.349Z,84.10
2018-04-11T20:40:31.694Z,85.30
2018-04-11T20:45:04.950Z,87.70
2018-04-11T20:49:38.390Z,89.20
2018-04-11T20:54:11.905Z,90.40
2018-04-11T20:58:45.406Z,90.50
2018-04-11T21:03:19.366Z,91.70
2018-04-11T21:07:52.599Z,91.60
2018-04-11T21:12:25.838Z,92.40
2018-04-11T21:16:59.571Z,92.20
2018-04-11T21:21:33.659Z,92.50
2018-04-11T21:26:07.008Z,92.50
2018-04-11T21:30:40.235Z,92.80
2018-04-11T21:35:13.633Z,93.00
2018-04-11T21:39:46.866Z,93.50
2018-04-11T21:44:20.059Z,93.70
2018-04-11T21:48:54.880Z,94.00
2018-04-11T21:53:28.387Z,93.50
2018-04-11T21:58:02.572Z,93.80
2018-04-11T22:02:35.847Z,93.80
2018-04-11T22:07:09.236Z,94.00
2018-04-11T22:11:43.290Z,94.60
2018-04-11T22:16:16.551Z,94.60
2018-04-11T22:20:50.574Z,95.40
2018-04-11T22:25:24.726Z,95.90
2018-04-11T22:29:58.021Z,95.90
2018-04-11T22:34:31.244Z,96.00
2018-04-11T22:39:05.235Z,96.30
2018-04-11T22:43:38.483Z,96.30
2018-04-11T22:48:11.708Z,96.40
2018-04-11T22:52:44.936Z,96.60
2018-04-11T22:57:18.191Z,97.10
2018-04-11T23:01:52.375Z,97.40
2018-04-11T23:06:25.569Z,97.40
2018-04-11T23:10:58.788Z,97.70
2018-04-11T23:15:33.024Z,98.10
2018-04-11T23:20:06.214Z,98.20
2018-04-11T23:24:39.480Z,98.20
2018-04-11T23:29:13.485Z,98.80
2018-04-11T23:33:46.646Z,98.70
2018-04-11T23:38:20.219Z,98.80
2018-04-11T23:42:53.452Z,98.90
2018-04-11T23:47:26.670Z,98.70
2018-04-11T23:51:59.909Z,99.00
2018-04-11T23:56:33.138Z,99.10
